sensor_id;sensor_type;location;lat;lon;timestamp;temperature;humidity
15241;DHT22;7723;52.170;9.978;2023-05-23T00:00:19;15.50;99.90
15241;DHT22;7723;52.170;9.978;2023-05-23T00:02:48;15.40;99.90
15241;DHT22;7723;52.170;9.978;2023-05-23T00:05:15;15.40;99.90
15241;DHT22;7723;52.170;9.978;2023-05-23T00:07:43;15.40;99.90
15241;DHT22;7723;52.170;9.978;2023-05-23T00:10:10;15.40;99.90
15241;DHT22;7723;52.170;9.978;2023-05-23T00:12:38;15.30;99.90
15241;DHT22;7723;52.170;9.978;2023-05-23T00:15:08;15.30;99.90
15241;DHT22;7723;52.170;9.978;2023-05-23T00:17:35;15.20;99.90
15241;DHT22;7723;52.170;9.978;2023-05-23T00:20:05;15.20;99.90
15241;DHT22;7723;52.170;9.978;2023-05-23T00:22:34;15.20;99.90
15241;DHT22;7723;52.170;9.978;2023-05-23T00:25:07;15.20;99.90
15241;DHT22;7723;52.170;9.978;2023-05-23T00:27:34;15.20;99.90
15241;DHT22;7723;52.170;9.978;2023-05-23T00:30:02;15.20;99.90
15241;DHT22;7723;52.170;9.978;2023-05-23T00:32:29;15.30;99.90
15241;DHT22;7723;52.170;9.978;2023-05-23T00:34:56;15.30;99.90
15241;DHT22;7723;52.170;9.978;2023-05-23T00:37:24;15.30;99.90
15241;DHT22;7723;52.170;9.978;2023-05-23T00:39:52;15.40;99.90
15241;DHT22;7723;52.170;9.978;2023-05-23T00:42:19;15.40;99.90
15241;DHT22;7723;52.170;9.978;2023-05-23T00:44:46;15.40;99.90
15241;DHT22;7723;52.170;9.978;2023-05-23T00:47:14;15.50;99.90
15241;DHT22;7723;52.170;9.978;2023-05-23T00:49:41;15.50;99.90
15241;DHT22;7723;52.170;9.978;2023-05-23T00:52:09;15.50;99.90
15241;DHT22;7723;52.170;9.978;2023-05-23T00:54:38;15.50;99.90
15241;DHT22;7723;52.170;9.978;2023-05-23T00:57:06;15.50;99.90
15241;DHT22;7723;52.170;9.978;2023-05-23T00:59:35;15.60;99.90
15241;DHT22;7723;52.170;9.978;2023-05-23T01:02:03;15.60;99.90
15241;DHT22;7723;52.170;9.978;2023-05-23T01:04:31;15.60;99.90
15241;DHT22;7723;52.170;9.978;2023-05-23T01:06:59;15.70;99.90
15241;DHT22;7723;52.170;9.978;2023-05-23T01:09:28;15.70;99.90
15241;DHT22;7723;52.170;9.978;2023-05-23T01:12:10;15.70;99.90
15241;DHT22;7723;52.170;9.978;2023-05-23T01:14:46;15.70;99.90
15241;DHT22;7723;52.170;9.978;2023-05-23T01:17:24;15.70;99.90
15241;DHT22;7723;52.170;9.978;2023-05-23T01:19:58;15.70;99.90
15241;DHT22;7723;52.170;9.978;2023-05-23T01:22:39;15.80;99.90
15241;DHT22;7723;52.170;9.978;2023-05-23T01:25:27;15.70;99.90
15241;DHT22;7723;52.170;9.978;2023-05-23T01:28:00;15.80;99.90
15241;DHT22;7723;52.170;9.978;2023-05-23T01:30:31;15.80;99.90
15241;DHT22;7723;52.170;9.978;2023-05-23T01:33:01;15.80;99.90
15241;DHT22;7723;52.170;9.978;2023-05-23T01:35:30;15.80;99.90
15241;DHT22;7723;52.170;9.978;2023-05-23T01:37:59;15.90;99.90
15241;DHT22;7723;52.170;9.978;2023-05-23T01:40:26;15.90;99.90
15241;DHT22;7723;52.170;9.978;2023-05-23T01:42:56;15.80;99.90
15241;DHT22;7723;52.170;9.978;2023-05-23T01:45:25;15.80;99.90
15241;DHT22;7723;52.170;9.978;2023-05-23T01:47:55;15.80;99.90
15241;DHT22;7723;52.170;9.978;2023-05-23T01:50:23;15.60;99.90
15241;DHT22;7723;52.170;9.978;2023-05-23T01:52:50;15.40;99.90
15241;DHT22;7723;52.170;9.978;2023-05-23T01:55:20;15.30;99.90
15241;DHT22;7723;52.170;9.978;2023-05-23T01:57:50;15.30;99.90
15241;DHT22;7723;52.170;9.978;2023-05-23T02:00:20;15.30;99.90
15241;DHT22;7723;52.170;9.978;2023-05-23T02:02:47;15.20;99.90
15241;DHT22;7723;52.170;9.978;2023-05-23T02:05:14;15.20;99.90
15241;DHT22;7723;52.170;9.978;2023-05-23T02:07:41;15.10;99.90
15241;DHT22;7723;52.170;9.978;2023-05-23T02:10:10;15.10;99.90
15241;DHT22;7723;52.170;9.978;2023-05-23T02:12:37;15.10;99.90
15241;DHT22;7723;52.170;9.978;2023-05-23T02:15:05;15.00;99.90
15241;DHT22;7723;52.170;9.978;2023-05-23T02:17:34;14.90;99.90
15241;DHT22;7723;52.170;9.978;2023-05-23T02:20:04;14.90;99.90
15241;DHT22;7723;52.170;9.978;2023-05-23T02:22:32;14.80;99.90
15241;DHT22;7723;52.170;9.978;2023-05-23T02:24:59;14.70;99.90
15241;DHT22;7723;52.170;9.978;2023-05-23T02:27:26;14.60;99.90
15241;DHT22;7723;52.170;9.978;2023-05-23T02:29:54;14.50;99.90
15241;DHT22;7723;52.170;9.978;2023-05-23T02:32:21;14.40;99.90
15241;DHT22;7723;52.170;9.978;2023-05-23T02:34:49;14.30;99.90
15241;DHT22;7723;52.170;9.978;2023-05-23T02:37:17;14.20;99.90
15241;DHT22;7723;52.170;9.978;2023-05-23T02:39:44;14.20;99.90
15241;DHT22;7723;52.170;9.978;2023-05-23T02:42:11;14.10;99.90
15241;DHT22;7723;52.170;9.978;2023-05-23T02:44:38;14.10;99.90
15241;DHT22;7723;52.170;9.978;2023-05-23T02:47:06;14.10;99.90
15241;DHT22;7723;52.170;9.978;2023-05-23T02:49:33;14.00;99.90
15241;DHT22;7723;52.170;9.978;2023-05-23T02:52:02;14.00;99.90
15241;DHT22;7723;52.170;9.978;2023-05-23T02:54:29;13.90;99.90
15241;DHT22;7723;52.170;9.978;2023-05-23T02:56:57;13.90;99.90
15241;DHT22;7723;52.170;9.978;2023-05-23T02:59:26;13.90;99.90
15241;DHT22;7723;52.170;9.978;2023-05-23T03:01:53;13.90;99.90
15241;DHT22;7723;52.170;9.978;2023-05-23T03:04:20;13.80;99.90
15241;DHT22;7723;52.170;9.978;2023-05-23T03:06:48;13.80;99.90
15241;DHT22;7723;52.170;9.978;2023-05-23T03:09:20;13.70;99.90
15241;DHT22;7723;52.170;9.978;2023-05-23T03:11:47;13.70;99.90
15241;DHT22;7723;52.170;9.978;2023-05-23T03:14:14;13.70;99.90
15241;DHT22;7723;52.170;9.978;2023-05-23T03:16:42;13.70;99.90
15241;DHT22;7723;52.170;9.978;2023-05-23T03:19:10;13.60;99.90
15241;DHT22;7723;52.170;9.978;2023-05-23T03:21:38;13.50;99.90
15241;DHT22;7723;52.170;9.978;2023-05-23T03:24:05;13.50;99.90
15241;DHT22;7723;52.170;9.978;2023-05-23T03:26:34;13.50;99.90
15241;DHT22;7723;52.170;9.978;2023-05-23T03:29:01;13.50;99.90
15241;DHT22;7723;52.170;9.978;2023-05-23T03:31:29;13.50;99.90
15241;DHT22;7723;52.170;9.978;2023-05-23T03:33:56;13.50;99.90
15241;DHT22;7723;52.170;9.978;2023-05-23T03:36:23;13.50;99.90
15241;DHT22;7723;52.170;9.978;2023-05-23T03:38:53;13.60;99.90
15241;DHT22;7723;52.170;9.978;2023-05-23T03:41:20;13.60;99.90
15241;DHT22;7723;52.170;9.978;2023-05-23T03:43:49;13.60;99.90
15241;DHT22;7723;52.170;9.978;2023-05-23T03:46:16;13.60;99.90
15241;DHT22;7723;52.170;9.978;2023-05-23T03:48:43;13.60;99.90
15241;DHT22;7723;52.170;9.978;2023-05-23T03:51:10;13.60;99.90
15241;DHT22;7723;52.170;9.978;2023-05-23T03:53:39;13.60;99.90
15241;DHT22;7723;52.170;9.978;2023-05-23T03:56:06;13.60;99.90
15241;DHT22;7723;52.170;9.978;2023-05-23T03:58:33;13.70;99.90
15241;DHT22;7723;52.170;9.978;2023-05-23T04:01:02;13.70;99.90
15241;DHT22;7723;52.170;9.978;2023-05-23T04:03:30;13.70;99.90
15241;DHT22;7723;52.170;9.978;2023-05-23T04:05:58;13.70;99.90
15241;DHT22;7723;52.170;9.978;2023-05-23T04:08:26;13.70;99.90
15241;DHT22;7723;52.170;9.978;2023-05-23T04:10:54;13.70;99.90
15241;DHT22;7723;52.170;9.978;2023-05-23T04:13:21;13.70;99.90
15241;DHT22;7723;52.170;9.978;2023-05-23T04:15:49;13.70;99.90
15241;DHT22;7723;52.170;9.978;2023-05-23T04:18:19;13.70;99.90
15241;DHT22;7723;52.170;9.978;2023-05-23T04:20:46;13.70;99.90
15241;DHT22;7723;52.170;9.978;2023-05-23T04:23:14;13.70;99.90
15241;DHT22;7723;52.170;9.978;2023-05-23T04:25:41;13.70;99.90
15241;DHT22;7723;52.170;9.978;2023-05-23T04:28:09;13.70;99.90
15241;DHT22;7723;52.170;9.978;2023-05-23T04:30:36;13.70;99.90
15241;DHT22;7723;52.170;9.978;2023-05-23T04:33:04;13.60;99.90
15241;DHT22;7723;52.170;9.978;2023-05-23T04:35:32;13.60;99.90
15241;DHT22;7723;52.170;9.978;2023-05-23T04:38:03;13.60;99.90
15241;DHT22;7723;52.170;9.978;2023-05-23T04:40:30;13.60;99.90
15241;DHT22;7723;52.170;9.978;2023-05-23T04:42:58;13.70;99.90
15241;DHT22;7723;52.170;9.978;2023-05-23T04:45:25;13.70;99.90
15241;DHT22;7723;52.170;9.978;2023-05-23T04:47:53;13.70;99.90
15241;DHT22;7723;52.170;9.978;2023-05-23T04:50:21;13.70;99.90
15241;DHT22;7723;52.170;9.978;2023-05-23T04:52:50;13.80;99.90
15241;DHT22;7723;52.170;9.978;2023-05-23T04:55:17;13.70;99.90
15241;DHT22;7723;52.170;9.978;2023-05-23T04:57:45;13.80;99.90
15241;DHT22;7723;52.170;9.978;2023-05-23T05:00:13;13.80;99.90
15241;DHT22;7723;52.170;9.978;2023-05-23T05:02:41;13.90;99.90
15241;DHT22;7723;52.170;9.978;2023-05-23T05:05:09;13.90;99.90
15241;DHT22;7723;52.170;9.978;2023-05-23T05:07:36;14.00;99.90
15241;DHT22;7723;52.170;9.978;2023-05-23T05:10:06;14.00;99.90
15241;DHT22;7723;52.170;9.978;2023-05-23T05:12:34;14.00;99.90
15241;DHT22;7723;52.170;9.978;2023-05-23T05:15:02;14.00;99.90
15241;DHT22;7723;52.170;9.978;2023-05-23T05:17:29;14.00;99.90
15241;DHT22;7723;52.170;9.978;2023-05-23T05:20:01;13.90;99.90
15241;DHT22;7723;52.170;9.978;2023-05-23T05:22:33;13.80;99.90
15241;DHT22;7723;52.170;9.978;2023-05-23T05:25:01;13.80;99.90
15241;DHT22;7723;52.170;9.978;2023-05-23T05:27:30;13.90;99.90
15241;DHT22;7723;52.170;9.978;2023-05-23T05:29:57;13.90;99.90
15241;DHT22;7723;52.170;9.978;2023-05-23T05:32:29;13.90;99.90
15241;DHT22;7723;52.170;9.978;2023-05-23T05:34:58;13.90;99.90
15241;DHT22;7723;52.170;9.978;2023-05-23T05:37:25;13.80;99.90
15241;DHT22;7723;52.170;9.978;2023-05-23T05:39:53;13.80;99.90
15241;DHT22;7723;52.170;9.978;2023-05-23T05:42:21;13.80;99.90
15241;DHT22;7723;52.170;9.978;2023-05-23T05:44:50;13.80;99.90
15241;DHT22;7723;52.170;9.978;2023-05-23T05:47:17;13.80;99.90
15241;DHT22;7723;52.170;9.978;2023-05-23T05:49:44;13.80;99.90
15241;DHT22;7723;52.170;9.978;2023-05-23T05:52:11;13.70;99.90
15241;DHT22;7723;52.170;9.978;2023-05-23T05:54:38;13.70;99.90
15241;DHT22;7723;52.170;9.978;2023-05-23T05:57:06;13.70;99.90
15241;DHT22;7723;52.170;9.978;2023-05-23T05:59:34;13.60;99.90
15241;DHT22;7723;52.170;9.978;2023-05-23T06:02:02;13.60;99.90
15241;DHT22;7723;52.170;9.978;2023-05-23T06:04:30;13.60;99.90
15241;DHT22;7723;52.170;9.978;2023-05-23T06:06:58;13.60;99.90
15241;DHT22;7723;52.170;9.978;2023-05-23T06:09:26;13.60;99.90
15241;DHT22;7723;52.170;9.978;2023-05-23T06:11:53;13.60;99.90
15241;DHT22;7723;52.170;9.978;2023-05-23T06:14:20;13.60;99.90
15241;DHT22;7723;52.170;9.978;2023-05-23T06:16:47;13.70;99.90
15241;DHT22;7723;52.170;9.978;2023-05-23T06:19:16;13.70;99.90
15241;DHT22;7723;52.170;9.978;2023-05-23T06:21:43;13.70;99.90
15241;DHT22;7723;52.170;9.978;2023-05-23T06:24:11;13.70;99.90
15241;DHT22;7723;52.170;9.978;2023-05-23T06:26:38;13.70;99.90
15241;DHT22;7723;52.170;9.978;2023-05-23T06:29:05;13.60;99.90
15241;DHT22;7723;52.170;9.978;2023-05-23T06:31:32;13.70;99.90
15241;DHT22;7723;52.170;9.978;2023-05-23T06:34:00;13.70;99.90
15241;DHT22;7723;52.170;9.978;2023-05-23T06:36:28;13.70;99.90
15241;DHT22;7723;52.170;9.978;2023-05-23T06:38:56;13.60;99.90
15241;DHT22;7723;52.170;9.978;2023-05-23T06:41:23;13.60;99.90
15241;DHT22;7723;52.170;9.978;2023-05-23T06:43:52;13.70;99.90
15241;DHT22;7723;52.170;9.978;2023-05-23T06:46:19;13.70;99.90
15241;DHT22;7723;52.170;9.978;2023-05-23T06:48:46;13.70;99.90
15241;DHT22;7723;52.170;9.978;2023-05-23T06:51:14;13.60;99.90
15241;DHT22;7723;52.170;9.978;2023-05-23T06:53:43;13.70;99.90
15241;DHT22;7723;52.170;9.978;2023-05-23T06:56:10;13.70;99.90
15241;DHT22;7723;52.170;9.978;2023-05-23T06:58:37;13.70;99.90
15241;DHT22;7723;52.170;9.978;2023-05-23T07:01:04;13.70;99.90
15241;DHT22;7723;52.170;9.978;2023-05-23T07:03:32;13.80;99.90
15241;DHT22;7723;52.170;9.978;2023-05-23T07:05:59;13.80;99.90
15241;DHT22;7723;52.170;9.978;2023-05-23T07:08:26;13.80;99.90
15241;DHT22;7723;52.170;9.978;2023-05-23T07:10:55;13.80;99.90
15241;DHT22;7723;52.170;9.978;2023-05-23T07:13:22;13.80;99.90
15241;DHT22;7723;52.170;9.978;2023-05-23T07:15:50;13.80;99.90
15241;DHT22;7723;52.170;9.978;2023-05-23T07:18:17;13.90;99.90
15241;DHT22;7723;52.170;9.978;2023-05-23T07:20:44;13.70;99.90
15241;DHT22;7723;52.170;9.978;2023-05-23T07:23:12;13.70;99.90
15241;DHT22;7723;52.170;9.978;2023-05-23T07:25:39;13.80;99.90
15241;DHT22;7723;52.170;9.978;2023-05-23T07:28:08;13.70;99.90
15241;DHT22;7723;52.170;9.978;2023-05-23T07:30:36;13.60;99.90
15241;DHT22;7723;52.170;9.978;2023-05-23T07:33:03;13.50;99.90
15241;DHT22;7723;52.170;9.978;2023-05-23T07:35:31;13.50;99.90
15241;DHT22;7723;52.170;9.978;2023-05-23T07:37:58;13.50;99.90
15241;DHT22;7723;52.170;9.978;2023-05-23T07:40:25;13.50;99.90
15241;DHT22;7723;52.170;9.978;2023-05-23T07:42:52;13.50;99.90
15241;DHT22;7723;52.170;9.978;2023-05-23T07:45:21;13.50;99.90
15241;DHT22;7723;52.170;9.978;2023-05-23T07:47:49;13.50;99.90
15241;DHT22;7723;52.170;9.978;2023-05-23T07:50:16;13.50;99.90
15241;DHT22;7723;52.170;9.978;2023-05-23T07:52:44;13.40;99.90
15241;DHT22;7723;52.170;9.978;2023-05-23T07:55:12;13.40;99.90
15241;DHT22;7723;52.170;9.978;2023-05-23T07:57:39;13.40;99.90
15241;DHT22;7723;52.170;9.978;2023-05-23T08:00:07;13.40;99.90
15241;DHT22;7723;52.170;9.978;2023-05-23T08:02:38;13.40;99.90
15241;DHT22;7723;52.170;9.978;2023-05-23T08:05:05;13.40;99.90
15241;DHT22;7723;52.170;9.978;2023-05-23T08:07:33;13.40;99.90
15241;DHT22;7723;52.170;9.978;2023-05-23T08:10:00;13.40;99.90
15241;DHT22;7723;52.170;9.978;2023-05-23T08:12:28;13.00;99.90
15241;DHT22;7723;52.170;9.978;2023-05-23T08:14:55;13.50;99.90
15241;DHT22;7723;52.170;9.978;2023-05-23T08:17:22;14.50;99.90
15241;DHT22;7723;52.170;9.978;2023-05-23T08:19:51;13.50;99.90
15241;DHT22;7723;52.170;9.978;2023-05-23T08:22:18;13.40;99.90
15241;DHT22;7723;52.170;9.978;2023-05-23T08:24:46;13.40;99.90
15241;DHT22;7723;52.170;9.978;2023-05-23T08:27:13;13.30;99.90
15241;DHT22;7723;52.170;9.978;2023-05-23T08:29:41;13.30;99.90
15241;DHT22;7723;52.170;9.978;2023-05-23T08:32:09;13.20;99.90
15241;DHT22;7723;52.170;9.978;2023-05-23T08:34:36;13.20;99.90
15241;DHT22;7723;52.170;9.978;2023-05-23T08:37:05;13.20;99.90
15241;DHT22;7723;52.170;9.978;2023-05-23T08:39:33;13.20;99.90
15241;DHT22;7723;52.170;9.978;2023-05-23T08:42:00;13.10;99.90
15241;DHT22;7723;52.170;9.978;2023-05-23T08:44:27;13.20;99.90
15241;DHT22;7723;52.170;9.978;2023-05-23T08:46:56;13.20;99.90
15241;DHT22;7723;52.170;9.978;2023-05-23T08:49:30;13.20;99.90
15241;DHT22;7723;52.170;9.978;2023-05-23T08:52:00;13.20;99.90
15241;DHT22;7723;52.170;9.978;2023-05-23T08:54:30;13.20;99.90
15241;DHT22;7723;52.170;9.978;2023-05-23T08:56:59;13.10;99.90
15241;DHT22;7723;52.170;9.978;2023-05-23T08:59:30;13.10;99.90
15241;DHT22;7723;52.170;9.978;2023-05-23T09:01:59;13.00;99.90
15241;DHT22;7723;52.170;9.978;2023-05-23T09:04:28;12.90;99.90
15241;DHT22;7723;52.170;9.978;2023-05-23T09:06:58;12.80;99.90
15241;DHT22;7723;52.170;9.978;2023-05-23T09:09:26;12.80;99.90
15241;DHT22;7723;52.170;9.978;2023-05-23T09:11:56;12.70;99.90
15241;DHT22;7723;52.170;9.978;2023-05-23T09:14:25;12.70;99.90
15241;DHT22;7723;52.170;9.978;2023-05-23T09:17:00;12.70;99.90
15241;DHT22;7723;52.170;9.978;2023-05-23T09:19:28;12.70;99.90
15241;DHT22;7723;52.170;9.978;2023-05-23T09:21:56;12.60;99.90
15241;DHT22;7723;52.170;9.978;2023-05-23T09:24:23;12.60;99.90
15241;DHT22;7723;52.170;9.978;2023-05-23T09:27:01;12.60;99.90
15241;DHT22;7723;52.170;9.978;2023-05-23T09:29:30;12.50;99.90
15241;DHT22;7723;52.170;9.978;2023-05-23T09:31:59;12.50;99.90
15241;DHT22;7723;52.170;9.978;2023-05-23T09:34:39;12.50;99.90
15241;DHT22;7723;52.170;9.978;2023-05-23T09:37:07;12.60;99.90
15241;DHT22;7723;52.170;9.978;2023-05-23T09:39:36;12.50;99.90
15241;DHT22;7723;52.170;9.978;2023-05-23T09:42:06;12.40;99.90
15241;DHT22;7723;52.170;9.978;2023-05-23T09:44:40;12.30;99.90
15241;DHT22;7723;52.170;9.978;2023-05-23T09:47:08;12.30;99.90
15241;DHT22;7723;52.170;9.978;2023-05-23T09:49:37;12.20;99.90
15241;DHT22;7723;52.170;9.978;2023-05-23T09:52:05;12.20;99.90
15241;DHT22;7723;52.170;9.978;2023-05-23T09:54:32;12.10;99.90
15241;DHT22;7723;52.170;9.978;2023-05-23T09:57:01;12.10;99.90
15241;DHT22;7723;52.170;9.978;2023-05-23T09:59:34;11.90;99.90
15241;DHT22;7723;52.170;9.978;2023-05-23T10:02:06;11.90;99.90
15241;DHT22;7723;52.170;9.978;2023-05-23T10:04:34;11.90;99.90
15241;DHT22;7723;52.170;9.978;2023-05-23T10:07:12;11.90;99.90
15241;DHT22;7723;52.170;9.978;2023-05-23T10:09:42;11.80;99.90
15241;DHT22;7723;52.170;9.978;2023-05-23T10:12:44;11.80;99.90
15241;DHT22;7723;52.170;9.978;2023-05-23T10:15:16;11.80;99.90
15241;DHT22;7723;52.170;9.978;2023-05-23T10:17:59;11.80;99.90
15241;DHT22;7723;52.170;9.978;2023-05-23T10:20:29;11.90;99.90
15241;DHT22;7723;52.170;9.978;2023-05-23T10:22:59;11.80;99.90
15241;DHT22;7723;52.170;9.978;2023-05-23T10:25:27;11.80;99.90
15241;DHT22;7723;52.170;9.978;2023-05-23T10:27:56;11.70;99.90
15241;DHT22;7723;52.170;9.978;2023-05-23T10:30:26;11.80;99.90
15241;DHT22;7723;52.170;9.978;2023-05-23T10:32:54;11.80;99.90
15241;DHT22;7723;52.170;9.978;2023-05-23T10:35:30;11.80;99.90
15241;DHT22;7723;52.170;9.978;2023-05-23T10:38:01;11.90;99.90
15241;DHT22;7723;52.170;9.978;2023-05-23T10:40:42;11.90;99.90
15241;DHT22;7723;52.170;9.978;2023-05-23T10:43:17;11.90;99.90
15241;DHT22;7723;52.170;9.978;2023-05-23T10:45:48;11.90;99.90
15241;DHT22;7723;52.170;9.978;2023-05-23T10:48:20;11.90;99.90
15241;DHT22;7723;52.170;9.978;2023-05-23T10:51:02;11.80;99.90
15241;DHT22;7723;52.170;9.978;2023-05-23T10:53:30;11.80;99.90
15241;DHT22;7723;52.170;9.978;2023-05-23T10:55:58;11.90;99.90
15241;DHT22;7723;52.170;9.978;2023-05-23T10:58:29;11.90;99.90
15241;DHT22;7723;52.170;9.978;2023-05-23T11:01:00;11.90;99.90
15241;DHT22;7723;52.170;9.978;2023-05-23T11:03:32;11.80;99.90
15241;DHT22;7723;52.170;9.978;2023-05-23T11:06:00;11.70;99.90
15241;DHT22;7723;52.170;9.978;2023-05-23T11:08:36;11.70;99.90
15241;DHT22;7723;52.170;9.978;2023-05-23T11:11:05;11.70;99.90
15241;DHT22;7723;52.170;9.978;2023-05-23T11:13:57;11.60;99.90
15241;DHT22;7723;52.170;9.978;2023-05-23T11:16:29;11.70;99.90
15241;DHT22;7723;52.170;9.978;2023-05-23T11:19:22;11.70;99.90
15241;DHT22;7723;52.170;9.978;2023-05-23T11:21:53;11.70;99.90
15241;DHT22;7723;52.170;9.978;2023-05-23T11:24:21;11.60;99.90
15241;DHT22;7723;52.170;9.978;2023-05-23T11:26:56;11.60;99.90
15241;DHT22;7723;52.170;9.978;2023-05-23T11:29:33;11.60;99.90
15241;DHT22;7723;52.170;9.978;2023-05-23T11:32:09;11.50;99.90
15241;DHT22;7723;52.170;9.978;2023-05-23T11:34:37;11.50;99.90
15241;DHT22;7723;52.170;9.978;2023-05-23T11:37:05;11.40;99.90
15241;DHT22;7723;52.170;9.978;2023-05-23T11:39:36;11.50;99.90
15241;DHT22;7723;52.170;9.978;2023-05-23T11:42:05;11.50;99.90
15241;DHT22;7723;52.170;9.978;2023-05-23T11:44:32;11.50;99.90
15241;DHT22;7723;52.170;9.978;2023-05-23T11:47:03;11.50;99.90
15241;DHT22;7723;52.170;9.978;2023-05-23T11:49:36;11.50;99.90
15241;DHT22;7723;52.170;9.978;2023-05-23T11:52:04;11.60;99.90
15241;DHT22;7723;52.170;9.978;2023-05-23T11:54:32;11.60;99.90
15241;DHT22;7723;52.170;9.978;2023-05-23T11:57:03;11.70;99.90
15241;DHT22;7723;52.170;9.978;2023-05-23T11:59:35;11.70;99.90
15241;DHT22;7723;52.170;9.978;2023-05-23T12:02:05;11.70;99.90
15241;DHT22;7723;52.170;9.978;2023-05-23T12:04:33;11.60;99.90
15241;DHT22;7723;52.170;9.978;2023-05-23T12:07:06;11.60;99.90
15241;DHT22;7723;52.170;9.978;2023-05-23T12:09:41;11.60;99.90
15241;DHT22;7723;52.170;9.978;2023-05-23T12:12:09;11.60;99.90
15241;DHT22;7723;52.170;9.978;2023-05-23T12:14:36;11.80;99.90
15241;DHT22;7723;52.170;9.978;2023-05-23T12:17:11;12.00;99.90
15241;DHT22;7723;52.170;9.978;2023-05-23T12:19:39;12.10;99.90
15241;DHT22;7723;52.170;9.978;2023-05-23T12:22:06;12.10;99.90
15241;DHT22;7723;52.170;9.978;2023-05-23T12:24:34;11.90;99.90
15241;DHT22;7723;52.170;9.978;2023-05-23T12:27:02;11.60;99.90
15241;DHT22;7723;52.170;9.978;2023-05-23T12:29:32;11.50;99.90
15241;DHT22;7723;52.170;9.978;2023-05-23T12:32:02;11.30;99.90
15241;DHT22;7723;52.170;9.978;2023-05-23T12:34:31;11.40;99.90
15241;DHT22;7723;52.170;9.978;2023-05-23T12:37:00;11.50;99.90
15241;DHT22;7723;52.170;9.978;2023-05-23T12:39:31;11.70;99.90
15241;DHT22;7723;52.170;9.978;2023-05-23T12:42:06;12.00;99.90
15241;DHT22;7723;52.170;9.978;2023-05-23T12:44:34;12.30;99.90
15241;DHT22;7723;52.170;9.978;2023-05-23T12:47:03;12.60;99.90
15241;DHT22;7723;52.170;9.978;2023-05-23T12:49:32;12.90;99.90
15241;DHT22;7723;52.170;9.978;2023-05-23T12:51:59;13.00;99.90
15241;DHT22;7723;52.170;9.978;2023-05-23T12:54:26;13.00;99.90
15241;DHT22;7723;52.170;9.978;2023-05-23T12:56:56;13.10;99.90
15241;DHT22;7723;52.170;9.978;2023-05-23T12:59:24;13.20;99.90
15241;DHT22;7723;52.170;9.978;2023-05-23T13:01:51;13.20;99.90
15241;DHT22;7723;52.170;9.978;2023-05-23T13:04:19;13.20;99.90
15241;DHT22;7723;52.170;9.978;2023-05-23T13:07:02;13.10;99.90
15241;DHT22;7723;52.170;9.978;2023-05-23T13:09:31;13.00;99.90
15241;DHT22;7723;52.170;9.978;2023-05-23T13:11:58;12.90;99.90
15241;DHT22;7723;52.170;9.978;2023-05-23T13:14:25;12.80;99.90
15241;DHT22;7723;52.170;9.978;2023-05-23T13:16:53;12.80;99.90
15241;DHT22;7723;52.170;9.978;2023-05-23T13:19:22;12.80;99.90
15241;DHT22;7723;52.170;9.978;2023-05-23T13:21:49;12.80;99.90
15241;DHT22;7723;52.170;9.978;2023-05-23T13:24:18;12.70;99.90
15241;DHT22;7723;52.170;9.978;2023-05-23T13:26:45;12.80;99.90
15241;DHT22;7723;52.170;9.978;2023-05-23T13:29:14;12.90;99.90
15241;DHT22;7723;52.170;9.978;2023-05-23T13:31:41;13.10;99.90
15241;DHT22;7723;52.170;9.978;2023-05-23T13:34:08;13.30;99.90
15241;DHT22;7723;52.170;9.978;2023-05-23T13:36:37;13.40;99.90
15241;DHT22;7723;52.170;9.978;2023-05-23T13:39:07;13.30;99.90
15241;DHT22;7723;52.170;9.978;2023-05-23T13:41:36;13.00;99.90
15241;DHT22;7723;52.170;9.978;2023-05-23T13:44:03;13.10;99.90
15241;DHT22;7723;52.170;9.978;2023-05-23T13:46:31;13.20;99.90
15241;DHT22;7723;52.170;9.978;2023-05-23T13:48:58;13.20;99.90
15241;DHT22;7723;52.170;9.978;2023-05-23T13:51:26;13.50;99.90
15241;DHT22;7723;52.170;9.978;2023-05-23T13:53:53;13.40;99.90
15241;DHT22;7723;52.170;9.978;2023-05-23T13:56:20;13.60;99.90
15241;DHT22;7723;52.170;9.978;2023-05-23T13:58:50;13.70;99.90
15241;DHT22;7723;52.170;9.978;2023-05-23T14:01:18;13.80;99.90
15241;DHT22;7723;52.170;9.978;2023-05-23T14:03:45;13.90;99.90
15241;DHT22;7723;52.170;9.978;2023-05-23T14:06:12;13.80;99.90
15241;DHT22;7723;52.170;9.978;2023-05-23T14:08:39;13.80;99.90
15241;DHT22;7723;52.170;9.978;2023-05-23T14:11:07;13.70;99.90
15241;DHT22;7723;52.170;9.978;2023-05-23T14:13:34;13.80;99.90
15241;DHT22;7723;52.170;9.978;2023-05-23T14:16:03;14.00;99.90
15241;DHT22;7723;52.170;9.978;2023-05-23T14:18:30;14.20;99.90
15241;DHT22;7723;52.170;9.978;2023-05-23T14:20:57;14.30;99.90
15241;DHT22;7723;52.170;9.978;2023-05-23T14:23:25;14.50;99.90
15241;DHT22;7723;52.170;9.978;2023-05-23T14:25:52;14.50;99.90
15241;DHT22;7723;52.170;9.978;2023-05-23T14:28:19;14.60;99.90
15241;DHT22;7723;52.170;9.978;2023-05-23T14:30:47;14.30;99.90
15241;DHT22;7723;52.170;9.978;2023-05-23T14:33:15;14.30;99.90
15241;DHT22;7723;52.170;9.978;2023-05-23T14:35:43;14.20;99.90
15241;DHT22;7723;52.170;9.978;2023-05-23T14:38:10;14.10;99.90
15241;DHT22;7723;52.170;9.978;2023-05-23T14:40:37;13.90;99.90
15241;DHT22;7723;52.170;9.978;2023-05-23T14:43:05;13.80;99.90
15241;DHT22;7723;52.170;9.978;2023-05-23T14:45:32;13.70;99.90
15241;DHT22;7723;52.170;9.978;2023-05-23T14:47:59;13.60;99.90
15241;DHT22;7723;52.170;9.978;2023-05-23T14:50:28;13.70;99.90
15241;DHT22;7723;52.170;9.978;2023-05-23T14:52:55;14.00;99.90
15241;DHT22;7723;52.170;9.978;2023-05-23T14:55:24;14.20;99.90
15241;DHT22;7723;52.170;9.978;2023-05-23T14:57:51;14.50;99.90
15241;DHT22;7723;52.170;9.978;2023-05-23T15:00:22;14.60;99.90
15241;DHT22;7723;52.170;9.978;2023-05-23T15:02:53;14.70;99.90
15241;DHT22;7723;52.170;9.978;2023-05-23T15:05:21;14.60;99.90
15241;DHT22;7723;52.170;9.978;2023-05-23T15:07:49;14.50;99.90
15241;DHT22;7723;52.170;9.978;2023-05-23T15:10:17;14.50;99.90
15241;DHT22;7723;52.170;9.978;2023-05-23T15:12:44;14.50;99.90
15241;DHT22;7723;52.170;9.978;2023-05-23T15:15:11;14.50;99.90
15241;DHT22;7723;52.170;9.978;2023-05-23T15:17:38;14.60;99.90
15241;DHT22;7723;52.170;9.978;2023-05-23T15:20:07;14.80;99.90
15241;DHT22;7723;52.170;9.978;2023-05-23T15:22:34;14.90;99.90
15241;DHT22;7723;52.170;9.978;2023-05-23T15:25:04;14.80;99.90
15241;DHT22;7723;52.170;9.978;2023-05-23T15:27:31;14.80;99.90
15241;DHT22;7723;52.170;9.978;2023-05-23T15:29:58;14.70;99.90
15241;DHT22;7723;52.170;9.978;2023-05-23T15:32:25;14.50;99.90
15241;DHT22;7723;52.170;9.978;2023-05-23T15:34:53;14.40;99.90
15241;DHT22;7723;52.170;9.978;2023-05-23T15:37:20;14.40;99.90
15241;DHT22;7723;52.170;9.978;2023-05-23T15:39:47;14.40;90.20
15241;DHT22;7723;52.170;9.978;2023-05-23T15:42:16;14.20;32.40
15241;DHT22;7723;52.170;9.978;2023-05-23T15:44:43;14.10;60.90
15241;DHT22;7723;52.170;9.978;2023-05-23T15:47:10;14.20;19.60
15241;DHT22;7723;52.170;9.978;2023-05-23T15:49:38;14.30;2.30
15241;DHT22;7723;52.170;9.978;2023-05-23T15:52:05;14.30;1.00
15241;DHT22;7723;52.170;9.978;2023-05-23T15:54:32;14.10;1.00
15241;DHT22;7723;52.170;9.978;2023-05-23T15:57:00;14.00;1.00